Time;durP1;ratioP1;P1;durP2;ratioP2;P2;SDS_P1;SDS_P2;PMS_P1;PMS_P2;Temp;Humidity;BMP_temperature;BMP_pressure;BME280_temperature;BME280_humidity;BME280_pressure;Samples;Min_cycle;Max_cycle;Signal;HPM_P1;HPM_P2
2021/10/30 00:01:27;;;;;;;34.88;28.58;;;;;;;;;;5095789;28;20016;-58
2021/10/30 00:03:52;;;;;;;35.05;27.70;;;;;;;;;;5095934;28;20477;-57
2021/10/30 00:06:18;;;;;;;35.63;28.60;;;;;;;;;;5103067;28;20016;-56
2021/10/30 00:08:43;;;;;;;35.55;28.48;;;;;;;;;;5093865;28;20392;-55
2021/10/30 00:11:08;;;;;;;34.95;27.70;;;;;;;;;;5098143;28;20380;-57
2021/10/30 00:13:33;;;;;;;35.78;29.00;;;;;;;;;;5093217;28;20012;-57
2021/10/30 00:15:59;;;;;;;33.53;27.08;;;;;;;;;;5096267;28;20472;-55
2021/10/30 00:18:24;;;;;;;34.78;27.80;;;;;;;;;;5113053;28;20111;-54
2021/10/30 00:20:50;;;;;;;34.10;27.40;;;;;;;;;;5101496;28;20024;-57
2021/10/30 00:23:15;;;;;;;33.80;27.05;;;;;;;;;;5093110;28;20098;-55
2021/10/30 00:25:40;;;;;;;36.03;28.23;;;;;;;;;;5093667;28;20128;-55
2021/10/30 00:28:05;;;;;;;35.22;27.80;;;;;;;;;;5090147;28;20024;-57
2021/10/30 00:30:31;;;;;;;34.20;27.30;;;;;;;;;;5093411;28;20052;-57
2021/10/30 00:32:56;;;;;;;34.63;27.13;;;;;;;;;;5100505;28;20106;-55
2021/10/30 00:35:21;;;;;;;35.17;28.70;;;;;;;;;;5093428;28;20084;-57
2021/10/30 00:37:46;;;;;;;38.17;29.15;;;;;;;;;;5094630;28;20048;-54
2021/10/30 00:40:12;;;;;;;33.40;27.33;;;;;;;;;;5094634;28;20028;-52
2021/10/30 00:42:38;;;;;;;33.75;28.27;;;;;;;;;;5108424;28;20090;-55
2021/10/30 00:45:03;;;;;;;35.45;28.13;;;;;;;;;;5092436;28;20020;-56
2021/10/30 00:47:28;;;;;;;34.33;27.70;;;;;;;;;;5074623;28;20024;-56
2021/10/30 00:49:54;;;;;;;34.00;27.98;;;;;;;;;;5094704;28;20030;-56
2021/10/30 00:52:19;;;;;;;35.15;28.20;;;;;;;;;;5112894;28;20031;-55
2021/10/30 00:54:46;;;;;;;34.65;28.17;;;;;;;;;;5112820;28;20069;-57
2021/10/30 00:57:12;;;;;;;33.38;25.85;;;;;;;;;;5085694;28;20032;-58
2021/10/30 00:59:37;;;;;;;34.08;25.70;;;;;;;;;;5089773;28;20487;-57
2021/10/30 01:02:03;;;;;;;32.50;27.00;;;;;;;;;;5093737;28;20071;-58
2021/10/30 01:04:29;;;;;;;35.28;29.50;;;;;;;;;;5090369;28;20534;-58
2021/10/30 01:06:54;;;;;;;34.28;26.60;;;;;;;;;;5092430;28;20077;-57
2021/10/30 01:09:20;;;;;;;29.92;26.25;;;;;;;;;;5092982;28;20019;-57
2021/10/30 01:11:46;;;;;;;32.65;25.05;;;;;;;;;;5093125;28;20123;-57
2021/10/30 01:14:11;;;;;;;31.83;26.38;;;;;;;;;;5091837;28;20035;-57
2021/10/30 01:16:37;;;;;;;32.17;26.70;;;;;;;;;;5109891;28;20396;-58
2021/10/30 01:19:02;;;;;;;30.83;25.35;;;;;;;;;;5110432;28;20031;-57
2021/10/30 01:21:28;;;;;;;35.80;26.67;;;;;;;;;;5091578;28;20050;-51
2021/10/30 01:23:54;;;;;;;32.40;25.70;;;;;;;;;;5089227;28;20043;-57
2021/10/30 01:26:21;;;;;;;37.35;25.55;;;;;;;;;;5112986;28;20026;-57
2021/10/30 01:28:46;;;;;;;30.33;24.63;;;;;;;;;;5092301;28;20026;-57
2021/10/30 01:31:12;;;;;;;31.75;25.13;;;;;;;;;;5092233;28;20118;-57
2021/10/30 01:33:37;;;;;;;31.70;25.20;;;;;;;;;;5090455;28;20114;-58
2021/10/30 01:36:09;;;;;;;30.45;24.08;;;;;;;;;;5100339;28;20127;-56
2021/10/30 01:38:34;;;;;;;30.05;25.08;;;;;;;;;;5092041;28;20054;-56
2021/10/30 01:41:00;;;;;;;30.33;23.92;;;;;;;;;;5092366;28;20024;-58
2021/10/30 01:43:25;;;;;;;28.75;24.17;;;;;;;;;;5091360;28;20028;-54
2021/10/30 01:45:50;;;;;;;27.02;23.73;;;;;;;;;;5091687;28;20032;-56
2021/10/30 01:48:16;;;;;;;33.17;25.45;;;;;;;;;;5104251;28;20031;-55
2021/10/30 01:50:41;;;;;;;27.30;22.10;;;;;;;;;;5097214;28;20028;-56
2021/10/30 01:53:07;;;;;;;29.02;22.50;;;;;;;;;;5110474;28;20447;-55
2021/10/30 01:55:34;;;;;;;27.02;22.77;;;;;;;;;;5082623;28;20028;-52
2021/10/30 01:57:59;;;;;;;25.52;22.17;;;;;;;;;;5079182;28;20132;-56
2021/10/30 02:00:24;;;;;;;27.77;22.00;;;;;;;;;;5092334;28;20104;-56
2021/10/30 02:02:50;;;;;;;25.98;21.58;;;;;;;;;;5092030;28;20077;-57
2021/10/30 02:05:15;;;;;;;25.92;20.92;;;;;;;;;;5092021;28;20450;-57
2021/10/30 02:07:40;;;;;;;27.27;21.98;;;;;;;;;;5096000;28;20016;-56
2021/10/30 02:10:06;;;;;;;25.77;21.70;;;;;;;;;;5096213;28;20023;-57
2021/10/30 02:12:32;;;;;;;24.80;20.20;;;;;;;;;;5107662;28;20088;-57
2021/10/30 02:14:57;;;;;;;25.70;20.95;;;;;;;;;;5089279;28;20023;-57
2021/10/30 02:17:22;;;;;;;25.05;20.30;;;;;;;;;;5100842;28;20030;-56
2021/10/30 02:19:48;;;;;;;27.33;21.83;;;;;;;;;;5116632;28;20102;-57
2021/10/30 02:22:13;;;;;;;25.33;19.55;;;;;;;;;;5103551;28;20027;-57
2021/10/30 02:24:38;;;;;;;29.23;21.98;;;;;;;;;;5096137;28;20120;-56
2021/10/30 02:27:04;;;;;;;24.58;20.95;;;;;;;;;;5095661;28;20529;-54
2021/10/30 02:29:29;;;;;;;26.50;20.58;;;;;;;;;;5093774;28;20127;-55
2021/10/30 02:31:54;;;;;;;24.10;20.38;;;;;;;;;;5102998;28;20027;-55
2021/10/30 02:34:19;;;;;;;25.70;20.90;;;;;;;;;;5095841;28;20544;-55
2021/10/30 02:36:45;;;;;;;25.20;21.52;;;;;;;;;;5102024;28;20034;-57
2021/10/30 02:39:11;;;;;;;24.85;19.73;;;;;;;;;;5103928;28;20035;-57
2021/10/30 02:41:36;;;;;;;24.73;20.40;;;;;;;;;;5086707;28;20059;-57
2021/10/30 02:44:02;;;;;;;26.10;20.85;;;;;;;;;;5115520;28;20526;-57
2021/10/30 02:46:27;;;;;;;24.20;19.83;;;;;;;;;;5107888;28;20083;-57
2021/10/30 02:48:52;;;;;;;25.98;19.92;;;;;;;;;;5093012;28;20038;-57
2021/10/30 02:51:17;;;;;;;23.55;19.38;;;;;;;;;;5085084;28;20073;-57
2021/10/30 02:53:42;;;;;;;21.48;19.13;;;;;;;;;;5096973;28;20029;-55
2021/10/30 02:56:07;;;;;;;23.48;19.23;;;;;;;;;;5112985;28;20035;-57
2021/10/30 02:58:33;;;;;;;24.80;19.85;;;;;;;;;;5091903;28;20090;-55
2021/10/30 03:00:58;;;;;;;24.65;18.63;;;;;;;;;;5094032;28;20111;-57
2021/10/30 03:03:23;;;;;;;24.33;18.65;;;;;;;;;;5092662;28;20044;-56
2021/10/30 03:05:48;;;;;;;23.75;19.55;;;;;;;;;;5106381;28;20028;-55
2021/10/30 03:08:14;;;;;;;22.35;18.38;;;;;;;;;;5091194;28;20039;-56
2021/10/30 03:10:39;;;;;;;24.20;19.13;;;;;;;;;;5097372;28;20027;-57
2021/10/30 03:13:04;;;;;;;23.60;19.20;;;;;;;;;;5114952;28;20024;-57
2021/10/30 03:15:29;;;;;;;23.00;18.85;;;;;;;;;;5080406;28;20016;-56
2021/10/30 03:17:54;;;;;;;22.85;18.58;;;;;;;;;;5093135;28;20016;-57
2021/10/30 03:20:20;;;;;;;23.67;19.20;;;;;;;;;;5097569;28;20044;-55
2021/10/30 03:22:45;;;;;;;25.13;18.63;;;;;;;;;;5094092;28;20508;-55
2021/10/30 03:25:11;;;;;;;22.55;18.42;;;;;;;;;;5076554;28;20415;-56
2021/10/30 03:27:36;;;;;;;24.02;19.13;;;;;;;;;;5106828;28;20023;-54
2021/10/30 03:30:02;;;;;;;24.52;18.67;;;;;;;;;;5100291;28;20461;-52
2021/10/30 03:32:27;;;;;;;20.98;17.17;;;;;;;;;;5106101;28;20032;-56
2021/10/30 03:34:52;;;;;;;21.08;18.67;;;;;;;;;;5076347;28;20020;-56
2021/10/30 03:37:18;;;;;;;22.60;19.50;;;;;;;;;;5096089;28;20365;-56
2021/10/30 03:39:43;;;;;;;23.08;18.27;;;;;;;;;;5106515;28;20510;-56
2021/10/30 03:42:08;;;;;;;26.40;18.92;;;;;;;;;;5113962;28;20058;-57
2021/10/30 03:44:33;;;;;;;24.02;18.45;;;;;;;;;;5087834;28;20123;-57
2021/10/30 03:46:59;;;;;;;25.10;19.45;;;;;;;;;;5097001;28;20425;-56
2021/10/30 03:49:24;;;;;;;22.13;18.48;;;;;;;;;;5094798;28;20020;-58
2021/10/30 03:51:49;;;;;;;21.90;18.00;;;;;;;;;;5093219;28;20024;-55
2021/10/30 03:54:14;;;;;;;22.77;18.05;;;;;;;;;;5093697;28;20098;-57
2021/10/30 03:56:39;;;;;;;21.65;18.50;;;;;;;;;;5093493;28;20365;-58
2021/10/30 03:59:04;;;;;;;21.38;16.90;;;;;;;;;;5063358;28;20507;-53
2021/10/30 04:01:30;;;;;;;20.92;18.70;;;;;;;;;;5092680;28;20024;-57
2021/10/30 04:03:55;;;;;;;20.58;17.67;;;;;;;;;;5088756;28;20475;-56
2021/10/30 04:06:20;;;;;;;23.27;17.85;;;;;;;;;;5100029;28;20214;-56
2021/10/30 04:08:46;;;;;;;22.73;18.50;;;;;;;;;;5086527;28;20023;-57
2021/10/30 04:11:11;;;;;;;21.48;18.17;;;;;;;;;;5094913;28;20024;-58
2021/10/30 04:13:36;;;;;;;19.77;16.90;;;;;;;;;;5114199;28;20023;-57
2021/10/30 04:16:01;;;;;;;22.33;18.02;;;;;;;;;;5091016;28;20449;-53
2021/10/30 04:18:27;;;;;;;21.83;18.15;;;;;;;;;;5074610;28;20033;-57
2021/10/30 04:20:52;;;;;;;21.80;18.55;;;;;;;;;;5066387;28;20502;-57
2021/10/30 04:23:17;;;;;;;21.45;16.85;;;;;;;;;;5092822;28;20403;-55
2021/10/30 04:25:42;;;;;;;21.25;17.70;;;;;;;;;;5093233;28;20016;-57
2021/10/30 04:28:08;;;;;;;21.42;17.48;;;;;;;;;;5071527;28;20092;-57
2021/10/30 04:30:34;;;;;;;22.60;19.38;;;;;;;;;;5074975;28;20136;-56
2021/10/30 04:32:59;;;;;;;22.27;19.17;;;;;;;;;;5082176;28;20162;-57
2021/10/30 04:35:24;;;;;;;22.90;18.83;;;;;;;;;;5081453;28;20019;-56
2021/10/30 04:37:50;;;;;;;22.30;18.25;;;;;;;;;;5094847;28;20016;-56
2021/10/30 04:40:15;;;;;;;20.90;17.70;;;;;;;;;;5096989;28;20439;-56
2021/10/30 04:42:40;;;;;;;21.20;17.45;;;;;;;;;;5099149;28;20136;-56
2021/10/30 04:45:06;;;;;;;22.98;17.70;;;;;;;;;;5094904;28;20020;-54
2021/10/30 04:47:31;;;;;;;21.00;17.52;;;;;;;;;;5113441;28;20046;-55
2021/10/30 04:49:56;;;;;;;22.45;18.05;;;;;;;;;;5113787;28;20031;-56
2021/10/30 04:52:21;;;;;;;22.40;18.80;;;;;;;;;;5093174;28;20411;-50
2021/10/30 04:54:47;;;;;;;21.77;18.25;;;;;;;;;;5113597;28;20074;-56
2021/10/30 04:57:12;;;;;;;21.13;17.27;;;;;;;;;;5101082;28;20030;-57
2021/10/30 04:59:37;;;;;;;20.45;18.05;;;;;;;;;;5091358;28;20444;-57
2021/10/30 05:02:02;;;;;;;23.17;18.88;;;;;;;;;;5073940;28;20456;-52
2021/10/30 05:04:28;;;;;;;19.92;17.58;;;;;;;;;;5092703;28;20052;-55
2021/10/30 05:06:53;;;;;;;20.73;17.95;;;;;;;;;;5076877;28;20024;-57
2021/10/30 05:09:18;;;;;;;22.38;18.10;;;;;;;;;;5092599;28;20031;-57
2021/10/30 05:11:43;;;;;;;22.38;18.60;;;;;;;;;;5091910;28;20040;-56
2021/10/30 05:14:08;;;;;;;25.48;18.83;;;;;;;;;;5091732;28;20103;-56
2021/10/30 05:16:34;;;;;;;22.98;18.83;;;;;;;;;;5091929;28;20024;-57
2021/10/30 05:18:59;;;;;;;21.15;17.83;;;;;;;;;;5098985;28;20479;-56
2021/10/30 05:21:24;;;;;;;20.52;17.90;;;;;;;;;;5092344;28;20043;-57
2021/10/30 05:23:49;;;;;;;22.17;18.23;;;;;;;;;;5098669;28;20028;-58
2021/10/30 05:26:15;;;;;;;22.83;19.00;;;;;;;;;;5112153;28;20099;-57
2021/10/30 05:28:41;;;;;;;22.23;17.92;;;;;;;;;;5090854;28;20038;-57
2021/10/30 05:31:06;;;;;;;22.98;18.30;;;;;;;;;;5072519;28;20400;-56
2021/10/30 05:33:32;;;;;;;20.13;17.25;;;;;;;;;;5074624;28;20070;-56
2021/10/30 05:35:57;;;;;;;22.42;17.48;;;;;;;;;;5071629;28;20039;-56
2021/10/30 05:38:22;;;;;;;20.80;17.27;;;;;;;;;;5073022;28;20047;-57
2021/10/30 05:40:48;;;;;;;20.75;17.83;;;;;;;;;;5071311;28;20024;-57
2021/10/30 05:43:13;;;;;;;20.50;18.30;;;;;;;;;;5080061;28;20032;-57
2021/10/30 05:45:39;;;;;;;21.58;18.00;;;;;;;;;;5080610;28;20515;-58
2021/10/30 05:48:06;;;;;;;19.35;16.00;;;;;;;;;;5092215;28;20050;-55
2021/10/30 05:50:32;;;;;;;18.85;16.85;;;;;;;;;;5089223;28;20074;-55
2021/10/30 05:52:57;;;;;;;22.08;18.17;;;;;;;;;;5073600;28;20024;-56
2021/10/30 05:55:22;;;;;;;22.25;17.92;;;;;;;;;;5073600;28;20112;-54
2021/10/30 05:57:48;;;;;;;20.45;18.00;;;;;;;;;;5079723;28;20115;-56
2021/10/30 06:00:13;;;;;;;20.45;17.92;;;;;;;;;;5045485;28;20111;-57
2021/10/30 06:02:38;;;;;;;22.40;17.90;;;;;;;;;;5078956;28;20020;-54
2021/10/30 06:05:04;;;;;;;20.20;17.38;;;;;;;;;;5068946;28;20456;-57
2021/10/30 06:07:29;;;;;;;21.95;18.17;;;;;;;;;;5072408;28;20025;-55
2021/10/30 06:09:54;;;;;;;22.08;18.33;;;;;;;;;;5071293;28;20093;-58
2021/10/30 06:12:19;;;;;;;19.55;17.40;;;;;;;;;;5089644;28;20491;-56
2021/10/30 06:14:44;;;;;;;22.80;18.65;;;;;;;;;;5070661;28;20024;-57
2021/10/30 06:17:10;;;;;;;20.05;17.08;;;;;;;;;;5071269;28;20115;-57
2021/10/30 06:19:35;;;;;;;21.02;16.98;;;;;;;;;;5071192;28;20287;-57
2021/10/30 06:22:00;;;;;;;22.05;18.58;;;;;;;;;;5074395;28;20039;-57
2021/10/30 06:24:26;;;;;;;20.55;17.88;;;;;;;;;;5071527;28;20534;-57
2021/10/30 06:26:51;;;;;;;19.95;17.85;;;;;;;;;;5053239;28;20020;-58
2021/10/30 06:29:16;;;;;;;19.98;17.50;;;;;;;;;;5074399;28;20040;-57
2021/10/30 06:31:42;;;;;;;21.30;18.25;;;;;;;;;;5085293;28;20114;-54
2021/10/30 06:34:07;;;;;;;21.67;18.10;;;;;;;;;;5089257;28;20089;-58
2021/10/30 06:36:32;;;;;;;21.45;17.23;;;;;;;;;;5084664;28;20020;-57
2021/10/30 06:38:58;;;;;;;21.42;18.40;;;;;;;;;;5074681;28;20054;-57
2021/10/30 06:41:24;;;;;;;22.55;18.55;;;;;;;;;;5091119;28;20123;-57
2021/10/30 06:43:49;;;;;;;22.98;20.65;;;;;;;;;;5090810;28;20028;-56
2021/10/30 06:46:14;;;;;;;23.00;19.05;;;;;;;;;;5090993;28;20029;-55
2021/10/30 06:48:39;;;;;;;22.95;19.50;;;;;;;;;;5095484;28;20111;-56
2021/10/30 06:51:05;;;;;;;23.70;20.02;;;;;;;;;;5101462;28;20115;-57
2021/10/30 06:53:31;;;;;;;19.67;16.63;;;;;;;;;;5099253;28;20027;-56
2021/10/30 06:55:58;;;;;;;20.17;16.98;;;;;;;;;;5115799;28;20474;-57
2021/10/30 06:58:25;;;;;;;21.13;18.90;;;;;;;;;;5080496;28;20059;-57
2021/10/30 07:00:50;;;;;;;20.15;18.05;;;;;;;;;;5094036;28;20027;-56
2021/10/30 07:03:15;;;;;;;20.50;18.48;;;;;;;;;;5094295;28;20517;-57
2021/10/30 07:05:41;;;;;;;20.05;17.05;;;;;;;;;;5094863;28;20032;-57
2021/10/30 07:08:06;;;;;;;19.77;17.60;;;;;;;;;;5101824;28;20020;-56
2021/10/30 07:10:31;;;;;;;19.52;15.75;;;;;;;;;;5099377;28;20108;-50
2021/10/30 07:12:56;;;;;;;18.55;16.42;;;;;;;;;;5094563;28;20020;-57
2021/10/30 07:15:22;;;;;;;18.90;16.83;;;;;;;;;;5093447;28;20020;-57
2021/10/30 07:17:47;;;;;;;17.90;15.95;;;;;;;;;;5096059;28;20134;-56
2021/10/30 07:20:12;;;;;;;21.10;16.83;;;;;;;;;;5095656;28;20434;-56
2021/10/30 07:22:44;;;;;;;23.13;16.27;;;;;;;;;;5094017;28;20027;-57
2021/10/30 07:25:10;;;;;;;19.58;15.93;;;;;;;;;;5094889;28;20120;-56
2021/10/30 07:27:36;;;;;;;19.55;16.25;;;;;;;;;;5090297;28;20115;-57
2021/10/30 07:30:01;;;;;;;19.10;17.10;;;;;;;;;;5086646;28;20032;-57
2021/10/30 07:32:27;;;;;;;19.23;17.20;;;;;;;;;;5079799;28;20024;-57
2021/10/30 07:34:52;;;;;;;18.35;16.27;;;;;;;;;;5053311;28;20455;-57
2021/10/30 07:37:17;;;;;;;18.35;15.40;;;;;;;;;;5071037;28;20334;-57
2021/10/30 07:39:43;;;;;;;20.55;16.75;;;;;;;;;;5074958;28;20031;-54
2021/10/30 07:42:08;;;;;;;17.23;14.57;;;;;;;;;;5059044;28;20058;-56
2021/10/30 07:44:35;;;;;;;17.77;15.95;;;;;;;;;;5078588;28;20016;-58
2021/10/30 07:47:02;;;;;;;18.25;15.35;;;;;;;;;;5066121;28;20518;-57
2021/10/30 07:49:27;;;;;;;18.20;16.33;;;;;;;;;;5087414;28;20373;-57
2021/10/30 07:51:52;;;;;;;17.13;15.20;;;;;;;;;;5078759;28;20081;-57
2021/10/30 07:54:18;;;;;;;16.45;14.73;;;;;;;;;;5081564;28;20051;-56
2021/10/30 07:56:43;;;;;;;19.15;16.13;;;;;;;;;;5073682;28;20029;-55
2021/10/30 07:59:08;;;;;;;17.92;16.05;;;;;;;;;;5071027;28;20028;-57
2021/10/30 08:01:33;;;;;;;16.80;14.77;;;;;;;;;;5055778;28;20029;-56
2021/10/30 08:03:59;;;;;;;16.67;14.93;;;;;;;;;;5078790;28;20381;-56
2021/10/30 08:06:24;;;;;;;17.98;15.45;;;;;;;;;;5071895;28;20472;-57
2021/10/30 08:08:49;;;;;;;15.02;13.52;;;;;;;;;;5087841;28;20024;-56
2021/10/30 08:11:14;;;;;;;15.93;14.23;;;;;;;;;;5073506;28;20043;-58
2021/10/30 08:13:40;;;;;;;15.15;13.27;;;;;;;;;;5074884;28;20028;-56
2021/10/30 08:16:05;;;;;;;14.98;13.35;;;;;;;;;;5073073;28;20036;-56
2021/10/30 08:18:30;;;;;;;15.68;13.40;;;;;;;;;;5073348;28;20024;-55
2021/10/30 08:20:55;;;;;;;14.77;13.27;;;;;;;;;;5073121;28;20039;-57
2021/10/30 08:23:21;;;;;;;16.00;14.30;;;;;;;;;;5056144;28;20063;-57
2021/10/30 08:25:46;;;;;;;15.65;13.95;;;;;;;;;;5091623;28;20039;-57
2021/10/30 08:28:11;;;;;;;15.38;13.77;;;;;;;;;;5061157;28;20025;-56
2021/10/30 08:30:36;;;;;;;14.90;13.23;;;;;;;;;;5071870;28;20088;-55
2021/10/30 08:33:02;;;;;;;16.75;14.35;;;;;;;;;;5072616;28;20034;-56
2021/10/30 08:35:27;;;;;;;17.05;14.10;;;;;;;;;;5079828;28;20051;-57
2021/10/30 08:37:52;;;;;;;15.77;14.00;;;;;;;;;;5074383;28;20039;-57
2021/10/30 08:40:18;;;;;;;16.38;14.00;;;;;;;;;;5055082;28;20025;-58
2021/10/30 08:42:50;;;;;;;15.80;14.10;;;;;;;;;;5068411;28;20047;-57
2021/10/30 08:45:16;;;;;;;15.55;13.95;;;;;;;;;;5070151;28;20032;-58
2021/10/30 08:47:50;;;;;;;16.90;15.25;;;;;;;;;;5071978;28;20031;-57
2021/10/30 08:50:16;;;;;;;16.10;14.27;;;;;;;;;;5072661;28;20099;-56
2021/10/30 08:52:41;;;;;;;17.70;15.85;;;;;;;;;;5072175;28;20183;-56
2021/10/30 08:55:07;;;;;;;16.67;14.98;;;;;;;;;;5072181;28;20028;-55
2021/10/30 08:57:33;;;;;;;16.27;14.57;;;;;;;;;;5066785;28;20033;-57
2021/10/30 09:00:13;;;;;;;16.25;14.52;;;;;;;;;;5070317;28;20414;-57
2021/10/30 09:02:38;;;;;;;17.48;15.75;;;;;;;;;;5062453;28;20027;-57
2021/10/30 09:05:08;;;;;;;17.85;14.30;;;;;;;;;;5072068;28;20024;-57
2021/10/30 09:07:34;;;;;;;18.10;16.27;;;;;;;;;;5070606;28;20125;-56
2021/10/30 09:09:59;;;;;;;18.45;16.52;;;;;;;;;;5072343;28;20147;-56
2021/10/30 09:12:25;;;;;;;17.35;15.55;;;;;;;;;;5071623;28;20103;-57
2021/10/30 09:14:51;;;;;;;18.13;16.00;;;;;;;;;;5071809;28;20078;-55
2021/10/30 09:17:20;;;;;;;16.23;14.52;;;;;;;;;;5071105;28;20021;-57
2021/10/30 09:19:47;;;;;;;16.27;14.63;;;;;;;;;;5071656;28;20020;-57
2021/10/30 09:22:14;;;;;;;16.50;14.50;;;;;;;;;;5071381;28;20028;-55
2021/10/30 09:25:02;;;;;;;17.88;14.25;;;;;;;;;;5054098;28;20427;-58
2021/10/30 09:27:47;;;;;;;15.43;13.93;;;;;;;;;;5040488;28;20487;-55
2021/10/30 09:30:13;;;;;;;17.20;15.50;;;;;;;;;;5082482;28;20047;-55
2021/10/30 09:32:39;;;;;;;15.10;13.63;;;;;;;;;;5092158;28;20024;-56
2021/10/30 09:35:04;;;;;;;16.23;14.13;;;;;;;;;;5091730;28;20023;-56
2021/10/30 09:37:33;;;;;;;15.70;13.95;;;;;;;;;;5091558;28;20117;-56
2021/10/30 09:40:17;;;;;;;17.00;14.63;;;;;;;;;;5074056;28;20039;-57
2021/10/30 09:42:43;;;;;;;17.27;14.20;;;;;;;;;;5078175;28;20036;-56
2021/10/30 09:45:12;;;;;;;16.02;14.38;;;;;;;;;;5091356;28;20028;-57
2021/10/30 09:47:41;;;;;;;17.23;15.52;;;;;;;;;;5090115;28;20038;-58
2021/10/30 09:50:22;;;;;;;15.80;13.98;;;;;;;;;;5086763;28;20400;-57
2021/10/30 09:52:48;;;;;;;15.68;14.07;;;;;;;;;;5094007;28;20051;-57
2021/10/30 09:55:23;;;;;;;14.27;12.80;;;;;;;;;;5098738;28;20094;-58
2021/10/30 09:57:57;;;;;;;15.85;14.35;;;;;;;;;;5095745;28;20015;-57
2021/10/30 10:00:24;;;;;;;13.98;12.27;;;;;;;;;;5089283;28;20016;-57
2021/10/30 10:02:50;;;;;;;12.98;11.68;;;;;;;;;;5091623;28;20024;-58
2021/10/30 10:05:18;;;;;;;12.98;11.70;;;;;;;;;;5093505;28;20062;-57
2021/10/30 10:07:43;;;;;;;14.20;12.70;;;;;;;;;;5094643;28;20094;-57
2021/10/30 10:10:09;;;;;;;13.13;11.85;;;;;;;;;;5073342;28;20471;-57
2021/10/30 10:12:34;;;;;;;11.80;10.68;;;;;;;;;;5091499;28;20024;-57
2021/10/30 10:15:01;;;;;;;12.88;11.60;;;;;;;;;;5090272;28;20024;-58
2021/10/30 10:17:26;;;;;;;13.55;11.63;;;;;;;;;;5091489;28;20488;-58
2021/10/30 10:19:51;;;;;;;13.95;12.30;;;;;;;;;;5091109;28;20048;-59
2021/10/30 10:22:17;;;;;;;12.55;11.38;;;;;;;;;;5080998;28;20059;-58
2021/10/30 10:24:42;;;;;;;12.90;11.60;;;;;;;;;;5067395;28;20078;-57
2021/10/30 10:27:08;;;;;;;13.00;11.57;;;;;;;;;;5088751;28;20028;-58
2021/10/30 10:29:35;;;;;;;13.63;12.23;;;;;;;;;;5090908;28;20051;-58
2021/10/30 10:32:05;;;;;;;13.60;12.18;;;;;;;;;;5094825;28;20020;-58
2021/10/30 10:34:32;;;;;;;13.15;11.95;;;;;;;;;;5095251;28;20038;-57
2021/10/30 10:37:12;;;;;;;11.63;10.43;;;;;;;;;;5096889;28;20071;-58
2021/10/30 10:39:39;;;;;;;12.63;11.45;;;;;;;;;;5088181;28;20114;-57
2021/10/30 10:42:04;;;;;;;12.35;11.25;;;;;;;;;;5094364;28;20020;-55
2021/10/30 10:44:30;;;;;;;13.13;11.75;;;;;;;;;;5093846;28;20388;-58
2021/10/30 10:46:57;;;;;;;11.90;10.88;;;;;;;;;;5095431;28;20046;-55
2021/10/30 10:49:35;;;;;;;12.93;11.75;;;;;;;;;;5089361;28;20027;-56
2021/10/30 10:52:05;;;;;;;12.25;11.13;;;;;;;;;;5094660;28;20054;-57
2021/10/30 10:54:50;;;;;;;11.95;10.85;;;;;;;;;;5093988;28;20043;-56
2021/10/30 10:57:20;;;;;;;12.45;11.35;;;;;;;;;;5074401;28;20388;-50
2021/10/30 10:59:45;;;;;;;12.38;11.27;;;;;;;;;;5089282;28;20586;-57
2021/10/30 11:02:15;;;;;;;12.30;11.17;;;;;;;;;;5094606;28;20069;-58
2021/10/30 11:04:41;;;;;;;12.18;11.07;;;;;;;;;;5095290;28;20270;-56
2021/10/30 11:07:13;;;;;;;12.32;11.20;;;;;;;;;;5094583;28;20062;-54
2021/10/30 11:09:50;;;;;;;11.90;10.80;;;;;;;;;;5094542;28;20388;-57
2021/10/30 11:12:25;;;;;;;11.73;10.73;;;;;;;;;;5094990;28;20039;-54
2021/10/30 11:14:54;;;;;;;12.38;11.27;;;;;;;;;;5087756;28;20017;-56
2021/10/30 11:17:24;;;;;;;12.32;11.23;;;;;;;;;;5093183;28;20028;-57
2021/10/30 11:19:50;;;;;;;12.95;11.77;;;;;;;;;;5094116;28;20035;-56
2021/10/30 11:22:20;;;;;;;13.48;12.27;;;;;;;;;;5093494;28;20111;-56
2021/10/30 11:24:49;;;;;;;13.07;11.95;;;;;;;;;;5091796;28;20618;-56
2021/10/30 11:27:14;;;;;;;12.80;11.60;;;;;;;;;;5070693;28;20384;-55
2021/10/30 11:29:47;;;;;;;12.18;11.07;;;;;;;;;;5091458;28;20043;-55
2021/10/30 11:32:12;;;;;;;11.95;10.75;;;;;;;;;;5098503;28;20040;-52
2021/10/30 11:34:37;;;;;;;12.10;11.00;;;;;;;;;;5093822;28;20028;-56
2021/10/30 11:37:04;;;;;;;11.77;10.70;;;;;;;;;;5093620;28;20040;-53
2021/10/30 11:39:31;;;;;;;13.07;11.45;;;;;;;;;;5092452;28;20530;-55
2021/10/30 11:41:56;;;;;;;10.88;9.88;;;;;;;;;;5094323;28;20051;-56
2021/10/30 11:44:22;;;;;;;12.50;11.30;;;;;;;;;;5093422;28;20532;-55
2021/10/30 11:46:55;;;;;;;11.48;10.48;;;;;;;;;;5093729;28;20742;-57
2021/10/30 11:49:23;;;;;;;11.38;10.48;;;;;;;;;;5095526;28;20514;-56
2021/10/30 11:51:48;;;;;;;12.30;11.23;;;;;;;;;;5110173;28;20103;-55
2021/10/30 11:54:14;;;;;;;12.30;11.15;;;;;;;;;;5093592;28;20055;-54
2021/10/30 11:56:39;;;;;;;12.30;11.23;;;;;;;;;;5087050;28;20028;-55
2021/10/30 11:59:06;;;;;;;12.77;11.60;;;;;;;;;;5088497;28;20754;-56
2021/10/30 12:01:41;;;;;;;13.90;12.70;;;;;;;;;;5093055;28;20036;-55
2021/10/30 12:04:20;;;;;;;11.90;10.90;;;;;;;;;;5093620;28;20407;-55
2021/10/30 12:06:53;;;;;;;12.77;11.57;;;;;;;;;;5093230;28;20103;-55
2021/10/30 12:09:37;;;;;;;12.30;11.25;;;;;;;;;;5096994;28;20069;-56
2021/10/30 12:12:06;;;;;;;13.15;11.98;;;;;;;;;;5088833;28;20678;-53
2021/10/30 12:14:33;;;;;;;13.00;11.70;;;;;;;;;;5093724;28;20038;-55
2021/10/30 12:16:59;;;;;;;12.55;11.35;;;;;;;;;;5093021;28;20081;-56
2021/10/30 12:19:26;;;;;;;13.15;11.88;;;;;;;;;;5092573;28;20035;-54
2021/10/30 12:22:11;;;;;;;12.40;11.40;;;;;;;;;;5096480;28;20032;-56
2021/10/30 12:24:37;;;;;;;13.20;12.00;;;;;;;;;;5094008;28;20035;-54
2021/10/30 12:27:03;;;;;;;13.05;11.85;;;;;;;;;;5090705;28;20036;-56
2021/10/30 12:29:32;;;;;;;13.23;12.00;;;;;;;;;;5087470;28;20051;-56
2021/10/30 12:31:58;;;;;;;12.68;11.38;;;;;;;;;;5086844;28;20030;-55
2021/10/30 12:34:24;;;;;;;13.80;12.48;;;;;;;;;;5093149;28;20379;-56
2021/10/30 12:36:49;;;;;;;14.35;11.45;;;;;;;;;;5091713;28;20024;-56
2021/10/30 12:39:21;;;;;;;14.73;13.32;;;;;;;;;;5092811;28;20035;-56
2021/10/30 12:42:00;;;;;;;14.68;13.38;;;;;;;;;;5093075;28;20028;-57
2021/10/30 12:44:29;;;;;;;14.35;12.95;;;;;;;;;;5092029;28;20084;-56
2021/10/30 12:46:59;;;;;;;15.57;13.98;;;;;;;;;;5087675;28;20522;-55
2021/10/30 12:49:25;;;;;;;15.73;14.18;;;;;;;;;;5090626;28;20426;-55
2021/10/30 12:51:54;;;;;;;15.70;14.10;;;;;;;;;;5095224;28;20396;-56
2021/10/30 12:54:25;;;;;;;16.48;14.88;;;;;;;;;;5092916;28;20020;-52
2021/10/30 12:56:50;;;;;;;18.75;15.57;;;;;;;;;;5091273;28;20032;-55
2021/10/30 12:59:15;;;;;;;16.50;14.80;;;;;;;;;;5088861;28;20030;-56
2021/10/30 13:01:49;;;;;;;16.63;14.98;;;;;;;;;;5092161;28;20032;-55
2021/10/30 13:04:14;;;;;;;17.67;15.73;;;;;;;;;;5091722;28;20023;-56
2021/10/30 13:06:40;;;;;;;18.63;16.05;;;;;;;;;;5091775;28;20012;-56
2021/10/30 13:09:06;;;;;;;18.27;16.20;;;;;;;;;;5088846;28;20111;-55
2021/10/30 13:11:32;;;;;;;18.00;16.10;;;;;;;;;;5091148;28;20028;-56
2021/10/30 13:13:57;;;;;;;17.05;15.23;;;;;;;;;;5091694;28;20074;-57
2021/10/30 13:16:23;;;;;;;17.73;15.82;;;;;;;;;;5091491;28;20552;-52
2021/10/30 13:18:49;;;;;;;18.25;16.27;;;;;;;;;;5091996;28;20039;-56
2021/10/30 13:21:24;;;;;;;17.48;15.77;;;;;;;;;;5092046;28;20066;-53
2021/10/30 13:23:49;;;;;;;;;;;;;;;;;;5091949;28;20028;-57
2021/10/30 13:26:15;;;;;;;18.10;16.05;;;;;;;;;;5111947;28;19907;-57
2021/10/30 13:28:40;;;;;;;20.13;17.60;;;;;;;;;;5086049;28;20043;-57
2021/10/30 13:31:05;;;;;;;19.02;17.20;;;;;;;;;;5077504;28;20044;-54
2021/10/30 13:33:30;;;;;;;19.08;17.05;;;;;;;;;;5053356;28;20033;-53
2021/10/30 13:35:56;;;;;;;19.52;17.08;;;;;;;;;;5071392;28;20025;-53
2021/10/30 13:38:21;;;;;;;20.25;17.85;;;;;;;;;;5063364;28;20032;-54
2021/10/30 13:40:46;;;;;;;20.08;17.38;;;;;;;;;;5071430;28;20025;-51
2021/10/30 13:43:11;;;;;;;19.90;17.90;;;;;;;;;;5070668;28;20020;-54
2021/10/30 13:45:37;;;;;;;20.27;18.17;;;;;;;;;;5071193;28;20029;-55
2021/10/30 13:48:02;;;;;;;20.48;18.13;;;;;;;;;;5071274;28;20036;-54
2021/10/30 13:50:29;;;;;;;21.15;18.88;;;;;;;;;;5053360;28;20115;-56
2021/10/30 13:52:55;;;;;;;21.27;19.23;;;;;;;;;;5071469;28;20098;-52
2021/10/30 13:55:21;;;;;;;20.73;18.65;;;;;;;;;;5070711;28;20051;-56
2021/10/30 13:57:46;;;;;;;20.30;18.15;;;;;;;;;;5066083;28;20696;-56
2021/10/30 14:00:11;;;;;;;19.83;17.73;;;;;;;;;;5069588;28;20028;-55
2021/10/30 14:02:36;;;;;;;20.30;18.13;;;;;;;;;;5064058;28;20036;-54
2021/10/30 14:05:02;;;;;;;19.65;17.60;;;;;;;;;;5052911;28;20481;-54
2021/10/30 14:07:27;;;;;;;19.42;17.52;;;;;;;;;;5071106;28;20056;-55
2021/10/30 14:09:52;;;;;;;19.77;17.15;;;;;;;;;;5071234;28;20076;-55
2021/10/30 14:12:17;;;;;;;19.20;16.35;;;;;;;;;;5071287;28;20021;-55
2021/10/30 14:14:43;;;;;;;19.83;17.73;;;;;;;;;;5070272;28;20024;-56